sensor_id;sensor_type;location;lat;lon;timestamp;temperature;humidity
24252;DHT22;12380;51.118;4.176;2022-10-23T00:03:42;15.00;99.90
24252;DHT22;12380;51.118;4.176;2022-10-23T00:06:09;14.90;99.90
24252;DHT22;12380;51.118;4.176;2022-10-23T00:08:35;14.90;99.90
24252;DHT22;12380;51.118;4.176;2022-10-23T00:11:04;14.90;99.90
24252;DHT22;12380;51.118;4.176;2022-10-23T00:13:33;14.80;99.90
24252;DHT22;12380;51.118;4.176;2022-10-23T00:15:59;14.80;99.90
24252;DHT22;12380;51.118;4.176;2022-10-23T00:18:24;14.80;99.90
24252;DHT22;12380;51.118;4.176;2022-10-23T00:20:50;14.80;99.90
24252;DHT22;12380;51.118;4.176;2022-10-23T00:23:16;14.80;99.90
24252;DHT22;12380;51.118;4.176;2022-10-23T00:25:42;14.80;99.90
24252;DHT22;12380;51.118;4.176;2022-10-23T00:28:09;14.90;99.90
24252;DHT22;12380;51.118;4.176;2022-10-23T00:30:34;14.90;99.90
24252;DHT22;12380;51.118;4.176;2022-10-23T00:33:00;15.00;99.90
24252;DHT22;12380;51.118;4.176;2022-10-23T00:35:25;15.00;99.90
24252;DHT22;12380;51.118;4.176;2022-10-23T00:37:51;14.90;99.90
24252;DHT22;12380;51.118;4.176;2022-10-23T00:40:16;14.80;99.90
24252;DHT22;12380;51.118;4.176;2022-10-23T00:42:42;14.80;99.90
24252;DHT22;12380;51.118;4.176;2022-10-23T00:45:41;14.70;99.90
24252;DHT22;12380;51.118;4.176;2022-10-23T00:48:00;14.90;99.90
24252;DHT22;12380;51.118;4.176;2022-10-23T00:50:28;14.80;99.90
24252;DHT22;12380;51.118;4.176;2022-10-23T00:52:55;14.70;99.90
24252;DHT22;12380;51.118;4.176;2022-10-23T00:55:21;14.70;99.90
24252;DHT22;12380;51.118;4.176;2022-10-23T00:57:48;14.70;99.90
24252;DHT22;12380;51.118;4.176;2022-10-23T01:00:16;14.70;99.90
24252;DHT22;12380;51.118;4.176;2022-10-23T01:02:42;14.60;99.90
24252;DHT22;12380;51.118;4.176;2022-10-23T01:05:08;14.70;99.90
24252;DHT22;12380;51.118;4.176;2022-10-23T01:07:37;14.70;99.90
24252;DHT22;12380;51.118;4.176;2022-10-23T01:12:37;14.60;99.90
24252;DHT22;12380;51.118;4.176;2022-10-23T01:15:09;14.70;99.90
24252;DHT22;12380;51.118;4.176;2022-10-23T01:18:04;14.70;99.90
24252;DHT22;12380;51.118;4.176;2022-10-23T01:20:43;14.60;99.90
24252;DHT22;12380;51.118;4.176;2022-10-23T01:23:21;14.70;99.90
24252;DHT22;12380;51.118;4.176;2022-10-23T01:25:57;14.70;99.90
24252;DHT22;12380;51.118;4.176;2022-10-23T01:30:56;14.70;99.90
24252;DHT22;12380;51.118;4.176;2022-10-23T01:33:26;14.70;99.90
24252;DHT22;12380;51.118;4.176;2022-10-23T01:36:00;14.70;99.90
24252;DHT22;12380;51.118;4.176;2022-10-23T01:38:34;14.70;99.90
24252;DHT22;12380;51.118;4.176;2022-10-23T01:41:09;14.70;99.90
24252;DHT22;12380;51.118;4.176;2022-10-23T01:43:40;14.60;99.90
24252;DHT22;12380;51.118;4.176;2022-10-23T01:46:09;14.70;99.90
24252;DHT22;12380;51.118;4.176;2022-10-23T01:48:36;14.70;99.90
24252;DHT22;12380;51.118;4.176;2022-10-23T01:51:06;14.70;99.90
24252;DHT22;12380;51.118;4.176;2022-10-23T01:53:33;14.70;99.90
24252;DHT22;12380;51.118;4.176;2022-10-23T01:56:00;14.80;99.90
24252;DHT22;12380;51.118;4.176;2022-10-23T01:58:27;14.80;99.90
24252;DHT22;12380;51.118;4.176;2022-10-23T02:00:55;14.80;99.90
24252;DHT22;12380;51.118;4.176;2022-10-23T02:03:23;14.80;99.90
24252;DHT22;12380;51.118;4.176;2022-10-23T02:05:51;14.80;99.90
24252;DHT22;12380;51.118;4.176;2022-10-23T02:08:16;14.80;99.90
24252;DHT22;12380;51.118;4.176;2022-10-23T02:10:53;14.90;99.90
24252;DHT22;12380;51.118;4.176;2022-10-23T02:13:24;14.80;99.90
24252;DHT22;12380;51.118;4.176;2022-10-23T02:15:57;14.90;99.90
24252;DHT22;12380;51.118;4.176;2022-10-23T02:18:29;14.90;99.90
24252;DHT22;12380;51.118;4.176;2022-10-23T02:21:08;14.90;99.90
24252;DHT22;12380;51.118;4.176;2022-10-23T02:23:47;14.80;99.90
24252;DHT22;12380;51.118;4.176;2022-10-23T02:26:20;14.80;99.90
24252;DHT22;12380;51.118;4.176;2022-10-23T02:28:49;14.90;99.90
24252;DHT22;12380;51.118;4.176;2022-10-23T02:31:16;14.80;99.90
24252;DHT22;12380;51.118;4.176;2022-10-23T02:33:46;14.80;99.90
24252;DHT22;12380;51.118;4.176;2022-10-23T02:36:12;14.90;99.90
24252;DHT22;12380;51.118;4.176;2022-10-23T02:38:42;14.90;99.90
24252;DHT22;12380;51.118;4.176;2022-10-23T02:43:43;14.80;99.90
24252;DHT22;12380;51.118;4.176;2022-10-23T02:46:18;14.80;99.90
24252;DHT22;12380;51.118;4.176;2022-10-23T02:48:47;14.80;99.90
24252;DHT22;12380;51.118;4.176;2022-10-23T02:51:21;14.70;99.90
24252;DHT22;12380;51.118;4.176;2022-10-23T02:58:50;14.70;99.90
24252;DHT22;12380;51.118;4.176;2022-10-23T03:01:45;14.70;99.90
24252;DHT22;12380;51.118;4.176;2022-10-23T03:04:07;14.70;99.90
24252;DHT22;12380;51.118;4.176;2022-10-23T03:06:34;14.80;99.90
24252;DHT22;12380;51.118;4.176;2022-10-23T03:09:04;14.80;99.90
24252;DHT22;12380;51.118;4.176;2022-10-23T03:11:30;14.80;99.90
24252;DHT22;12380;51.118;4.176;2022-10-23T03:13:56;14.70;99.90
24252;DHT22;12380;51.118;4.176;2022-10-23T03:16:22;14.70;99.90
24252;DHT22;12380;51.118;4.176;2022-10-23T03:18:47;14.80;99.90
24252;DHT22;12380;51.118;4.176;2022-10-23T03:21:13;14.60;99.90
24252;DHT22;12380;51.118;4.176;2022-10-23T03:23:42;14.70;99.90
24252;DHT22;12380;51.118;4.176;2022-10-23T03:26:09;14.60;99.90
24252;DHT22;12380;51.118;4.176;2022-10-23T03:28:34;14.60;99.90
24252;DHT22;12380;51.118;4.176;2022-10-23T03:31:00;14.70;99.90
24252;DHT22;12380;51.118;4.176;2022-10-23T03:33:28;14.80;99.90
24252;DHT22;12380;51.118;4.176;2022-10-23T03:35:54;14.80;99.90
24252;DHT22;12380;51.118;4.176;2022-10-23T03:38:19;14.80;99.90
24252;DHT22;12380;51.118;4.176;2022-10-23T03:40:45;14.80;99.90
24252;DHT22;12380;51.118;4.176;2022-10-23T03:43:10;14.80;99.90
24252;DHT22;12380;51.118;4.176;2022-10-23T03:45:39;14.80;99.90
24252;DHT22;12380;51.118;4.176;2022-10-23T03:48:14;14.80;99.90
24252;DHT22;12380;51.118;4.176;2022-10-23T03:50:40;14.70;99.90
24252;DHT22;12380;51.118;4.176;2022-10-23T03:53:06;14.70;99.90
24252;DHT22;12380;51.118;4.176;2022-10-23T03:55:32;14.60;99.90
24252;DHT22;12380;51.118;4.176;2022-10-23T03:57:57;14.60;99.90
24252;DHT22;12380;51.118;4.176;2022-10-23T04:00:23;14.70;99.90
24252;DHT22;12380;51.118;4.176;2022-10-23T04:02:49;14.70;99.90
24252;DHT22;12380;51.118;4.176;2022-10-23T04:05:14;14.70;99.90
24252;DHT22;12380;51.118;4.176;2022-10-23T04:07:40;14.80;99.90
24252;DHT22;12380;51.118;4.176;2022-10-23T04:10:05;14.80;99.90
24252;DHT22;12380;51.118;4.176;2022-10-23T04:12:32;14.70;99.90
24252;DHT22;12380;51.118;4.176;2022-10-23T04:14:58;14.70;99.90
24252;DHT22;12380;51.118;4.176;2022-10-23T04:17:24;14.70;99.90
24252;DHT22;12380;51.118;4.176;2022-10-23T04:19:50;14.70;99.90
24252;DHT22;12380;51.118;4.176;2022-10-23T04:22:15;14.70;99.90
24252;DHT22;12380;51.118;4.176;2022-10-23T04:24:41;14.70;99.90
24252;DHT22;12380;51.118;4.176;2022-10-23T04:27:11;14.70;99.90
24252;DHT22;12380;51.118;4.176;2022-10-23T04:29:37;14.80;99.90
24252;DHT22;12380;51.118;4.176;2022-10-23T04:32:02;14.80;99.90
24252;DHT22;12380;51.118;4.176;2022-10-23T04:34:28;14.80;99.90
24252;DHT22;12380;51.118;4.176;2022-10-23T04:36:54;14.60;99.90
24252;DHT22;12380;51.118;4.176;2022-10-23T04:39:20;14.60;99.90
24252;DHT22;12380;51.118;4.176;2022-10-23T04:41:46;14.60;99.90
24252;DHT22;12380;51.118;4.176;2022-10-23T04:44:14;14.60;99.90
24252;DHT22;12380;51.118;4.176;2022-10-23T04:46:40;14.50;99.90
24252;DHT22;12380;51.118;4.176;2022-10-23T04:49:08;14.50;99.90
24252;DHT22;12380;51.118;4.176;2022-10-23T04:51:37;14.40;99.90
24252;DHT22;12380;51.118;4.176;2022-10-23T04:54:02;14.30;99.90
24252;DHT22;12380;51.118;4.176;2022-10-23T04:56:30;14.40;99.90
24252;DHT22;12380;51.118;4.176;2022-10-23T04:58:57;14.40;99.90
24252;DHT22;12380;51.118;4.176;2022-10-23T05:01:22;14.40;99.90
24252;DHT22;12380;51.118;4.176;2022-10-23T05:03:48;14.50;99.90
24252;DHT22;12380;51.118;4.176;2022-10-23T05:06:18;14.50;99.90
24252;DHT22;12380;51.118;4.176;2022-10-23T05:08:44;14.60;99.90
24252;DHT22;12380;51.118;4.176;2022-10-23T05:11:10;14.60;99.90
24252;DHT22;12380;51.118;4.176;2022-10-23T05:13:38;14.50;99.90
24252;DHT22;12380;51.118;4.176;2022-10-23T05:16:03;14.60;99.90
24252;DHT22;12380;51.118;4.176;2022-10-23T05:18:39;14.50;99.90
24252;DHT22;12380;51.118;4.176;2022-10-23T05:21:13;14.50;99.90
24252;DHT22;12380;51.118;4.176;2022-10-23T05:23:40;14.50;99.90
24252;DHT22;12380;51.118;4.176;2022-10-23T05:26:07;14.50;99.90
24252;DHT22;12380;51.118;4.176;2022-10-23T05:28:32;14.60;99.90
24252;DHT22;12380;51.118;4.176;2022-10-23T05:30:58;14.60;99.90
24252;DHT22;12380;51.118;4.176;2022-10-23T05:33:25;14.60;99.90
24252;DHT22;12380;51.118;4.176;2022-10-23T05:35:51;14.60;99.90
24252;DHT22;12380;51.118;4.176;2022-10-23T05:38:17;14.70;99.90
24252;DHT22;12380;51.118;4.176;2022-10-23T05:40:42;14.60;99.90
24252;DHT22;12380;51.118;4.176;2022-10-23T05:43:08;14.60;99.90
24252;DHT22;12380;51.118;4.176;2022-10-23T05:45:33;14.60;99.90
24252;DHT22;12380;51.118;4.176;2022-10-23T05:47:59;14.60;99.90
24252;DHT22;12380;51.118;4.176;2022-10-23T05:50:25;14.50;99.90
24252;DHT22;12380;51.118;4.176;2022-10-23T05:52:51;14.40;99.90
24252;DHT22;12380;51.118;4.176;2022-10-23T05:55:17;14.50;99.90
24252;DHT22;12380;51.118;4.176;2022-10-23T05:57:42;14.50;99.90
24252;DHT22;12380;51.118;4.176;2022-10-23T06:00:08;14.60;99.90
24252;DHT22;12380;51.118;4.176;2022-10-23T06:02:34;14.60;99.90
24252;DHT22;12380;51.118;4.176;2022-10-23T06:04:59;14.60;99.90
24252;DHT22;12380;51.118;4.176;2022-10-23T06:07:25;14.60;99.90
24252;DHT22;12380;51.118;4.176;2022-10-23T06:09:52;14.60;99.90
24252;DHT22;12380;51.118;4.176;2022-10-23T06:12:19;14.70;99.90
24252;DHT22;12380;51.118;4.176;2022-10-23T06:14:45;14.70;99.90
24252;DHT22;12380;51.118;4.176;2022-10-23T06:17:10;14.70;99.90
24252;DHT22;12380;51.118;4.176;2022-10-23T06:19:38;14.60;99.90
24252;DHT22;12380;51.118;4.176;2022-10-23T06:22:05;14.60;99.90
24252;DHT22;12380;51.118;4.176;2022-10-23T06:24:31;14.60;99.90
24252;DHT22;12380;51.118;4.176;2022-10-23T06:26:57;14.70;99.90
24252;DHT22;12380;51.118;4.176;2022-10-23T06:29:22;14.70;99.90
24252;DHT22;12380;51.118;4.176;2022-10-23T06:31:48;14.80;99.90
24252;DHT22;12380;51.118;4.176;2022-10-23T06:34:14;14.80;99.90
24252;DHT22;12380;51.118;4.176;2022-10-23T06:36:40;14.80;99.90
24252;DHT22;12380;51.118;4.176;2022-10-23T06:39:06;14.80;99.90
24252;DHT22;12380;51.118;4.176;2022-10-23T06:41:31;14.70;99.90
24252;DHT22;12380;51.118;4.176;2022-10-23T06:43:57;14.80;99.90
24252;DHT22;12380;51.118;4.176;2022-10-23T06:46:24;14.80;99.90
24252;DHT22;12380;51.118;4.176;2022-10-23T06:48:51;14.80;99.90
24252;DHT22;12380;51.118;4.176;2022-10-23T06:51:18;14.70;99.90
24252;DHT22;12380;51.118;4.176;2022-10-23T06:53:43;14.90;99.90
24252;DHT22;12380;51.118;4.176;2022-10-23T06:56:10;14.90;99.90
24252;DHT22;12380;51.118;4.176;2022-10-23T06:58:36;14.90;99.90
24252;DHT22;12380;51.118;4.176;2022-10-23T07:01:03;15.00;99.90
24252;DHT22;12380;51.118;4.176;2022-10-23T07:03:29;15.00;99.90
24252;DHT22;12380;51.118;4.176;2022-10-23T07:05:59;14.90;99.90
24252;DHT22;12380;51.118;4.176;2022-10-23T07:08:24;15.00;99.90
24252;DHT22;12380;51.118;4.176;2022-10-23T07:10:50;15.00;99.90
24252;DHT22;12380;51.118;4.176;2022-10-23T07:13:15;14.90;99.90
24252;DHT22;12380;51.118;4.176;2022-10-23T07:15:41;14.90;99.90
24252;DHT22;12380;51.118;4.176;2022-10-23T07:18:07;15.00;99.90
24252;DHT22;12380;51.118;4.176;2022-10-23T07:20:39;15.00;99.90
24252;DHT22;12380;51.118;4.176;2022-10-23T07:23:04;15.10;99.90
24252;DHT22;12380;51.118;4.176;2022-10-23T07:25:30;15.10;99.90
24252;DHT22;12380;51.118;4.176;2022-10-23T07:27:57;15.20;99.90
24252;DHT22;12380;51.118;4.176;2022-10-23T07:30:23;15.30;99.90
24252;DHT22;12380;51.118;4.176;2022-10-23T07:32:49;15.20;99.90
24252;DHT22;12380;51.118;4.176;2022-10-23T07:35:14;15.20;99.90
24252;DHT22;12380;51.118;4.176;2022-10-23T07:37:40;15.30;99.90
24252;DHT22;12380;51.118;4.176;2022-10-23T07:40:06;15.30;99.90
24252;DHT22;12380;51.118;4.176;2022-10-23T07:42:35;15.20;99.90
24252;DHT22;12380;51.118;4.176;2022-10-23T07:45:02;15.40;99.90
24252;DHT22;12380;51.118;4.176;2022-10-23T07:47:28;15.30;99.90
24252;DHT22;12380;51.118;4.176;2022-10-23T07:49:54;15.20;99.90
24252;DHT22;12380;51.118;4.176;2022-10-23T07:52:20;15.20;99.90
24252;DHT22;12380;51.118;4.176;2022-10-23T07:54:49;15.40;99.90
24252;DHT22;12380;51.118;4.176;2022-10-23T07:57:14;15.30;99.90
24252;DHT22;12380;51.118;4.176;2022-10-23T07:59:40;15.30;99.90
24252;DHT22;12380;51.118;4.176;2022-10-23T08:02:09;15.50;99.90
24252;DHT22;12380;51.118;4.176;2022-10-23T08:04:35;15.30;99.90
24252;DHT22;12380;51.118;4.176;2022-10-23T08:07:01;15.20;99.90
24252;DHT22;12380;51.118;4.176;2022-10-23T08:09:26;15.20;99.90
24252;DHT22;12380;51.118;4.176;2022-10-23T08:11:52;15.30;99.90
24252;DHT22;12380;51.118;4.176;2022-10-23T08:14:17;15.30;99.90
24252;DHT22;12380;51.118;4.176;2022-10-23T08:16:43;15.30;99.90
24252;DHT22;12380;51.118;4.176;2022-10-23T08:19:09;15.40;99.90
24252;DHT22;12380;51.118;4.176;2022-10-23T08:21:35;15.50;99.90
24252;DHT22;12380;51.118;4.176;2022-10-23T08:24:02;15.70;99.90
24252;DHT22;12380;51.118;4.176;2022-10-23T08:26:29;15.80;99.90
24252;DHT22;12380;51.118;4.176;2022-10-23T08:28:55;15.70;99.90
24252;DHT22;12380;51.118;4.176;2022-10-23T08:31:20;15.70;99.90
24252;DHT22;12380;51.118;4.176;2022-10-23T08:33:49;15.90;99.90
24252;DHT22;12380;51.118;4.176;2022-10-23T08:36:22;16.00;99.90
24252;DHT22;12380;51.118;4.176;2022-10-23T08:38:49;16.00;99.90
24252;DHT22;12380;51.118;4.176;2022-10-23T08:43:45;15.90;99.90
24252;DHT22;12380;51.118;4.176;2022-10-23T08:46:13;16.00;99.90
24252;DHT22;12380;51.118;4.176;2022-10-23T08:48:41;16.00;99.90
24252;DHT22;12380;51.118;4.176;2022-10-23T08:54:04;16.10;99.90
24252;DHT22;12380;51.118;4.176;2022-10-23T08:56:33;16.30;99.90
24252;DHT22;12380;51.118;4.176;2022-10-23T08:59:03;16.30;99.90
24252;DHT22;12380;51.118;4.176;2022-10-23T09:01:42;16.40;99.90
24252;DHT22;12380;51.118;4.176;2022-10-23T09:04:10;16.50;99.90
24252;DHT22;12380;51.118;4.176;2022-10-23T09:14:33;16.50;99.90
24252;DHT22;12380;51.118;4.176;2022-10-23T09:19:35;16.50;99.90
24252;DHT22;12380;51.118;4.176;2022-10-23T09:22:00;16.60;99.90
24252;DHT22;12380;51.118;4.176;2022-10-23T09:24:27;17.00;99.90
24252;DHT22;12380;51.118;4.176;2022-10-23T09:26:57;17.10;99.90
24252;DHT22;12380;51.118;4.176;2022-10-23T09:31:56;16.80;99.90
24252;DHT22;12380;51.118;4.176;2022-10-23T09:34:23;16.80;99.90
24252;DHT22;12380;51.118;4.176;2022-10-23T09:36:50;16.60;99.90
24252;DHT22;12380;51.118;4.176;2022-10-23T09:39:22;16.50;99.90
24252;DHT22;12380;51.118;4.176;2022-10-23T09:41:47;16.80;99.90
24252;DHT22;12380;51.118;4.176;2022-10-23T09:44:18;16.80;99.90
24252;DHT22;12380;51.118;4.176;2022-10-23T09:46:46;16.70;99.90
24252;DHT22;12380;51.118;4.176;2022-10-23T09:51:48;17.00;99.90
24252;DHT22;12380;51.118;4.176;2022-10-23T09:54:15;17.00;99.90
24252;DHT22;12380;51.118;4.176;2022-10-23T09:56:45;17.10;99.90
24252;DHT22;12380;51.118;4.176;2022-10-23T10:01:50;17.10;99.90
24252;DHT22;12380;51.118;4.176;2022-10-23T10:04:16;17.10;99.90
24252;DHT22;12380;51.118;4.176;2022-10-23T10:06:42;17.10;99.90
24252;DHT22;12380;51.118;4.176;2022-10-23T10:09:15;17.10;99.90
24252;DHT22;12380;51.118;4.176;2022-10-23T10:17:05;17.20;99.90
24252;DHT22;12380;51.118;4.176;2022-10-23T10:22:25;17.00;99.90
24252;DHT22;12380;51.118;4.176;2022-10-23T10:24:58;17.10;99.90
24252;DHT22;12380;51.118;4.176;2022-10-23T10:27:32;17.10;99.90
24252;DHT22;12380;51.118;4.176;2022-10-23T10:35:03;17.50;99.90
24252;DHT22;12380;51.118;4.176;2022-10-23T10:37:46;17.50;99.90
24252;DHT22;12380;51.118;4.176;2022-10-23T10:53:19;17.60;99.90
24252;DHT22;12380;51.118;4.176;2022-10-23T10:55:55;17.70;99.90
24252;DHT22;12380;51.118;4.176;2022-10-23T11:00:57;17.80;99.90
24252;DHT22;12380;51.118;4.176;2022-10-23T11:05:48;17.90;99.90
24252;DHT22;12380;51.118;4.176;2022-10-23T11:08:35;18.00;99.90
24252;DHT22;12380;51.118;4.176;2022-10-23T11:11:04;18.10;99.90
24252;DHT22;12380;51.118;4.176;2022-10-23T11:13:39;18.10;99.90
24252;DHT22;12380;51.118;4.176;2022-10-23T11:16:09;18.20;99.90
24252;DHT22;12380;51.118;4.176;2022-10-23T11:18:36;18.10;99.90
24252;DHT22;12380;51.118;4.176;2022-10-23T11:29:42;18.50;99.90
24252;DHT22;12380;51.118;4.176;2022-10-23T11:31:53;18.50;99.90
24252;DHT22;12380;51.118;4.176;2022-10-23T11:34:38;18.60;99.90
24252;DHT22;12380;51.118;4.176;2022-10-23T11:37:07;18.60;99.90
24252;DHT22;12380;51.118;4.176;2022-10-23T11:39:36;18.60;99.90
24252;DHT22;12380;51.118;4.176;2022-10-23T11:44:39;18.90;99.90
24252;DHT22;12380;51.118;4.176;2022-10-23T11:47:24;19.00;99.90
24252;DHT22;12380;51.118;4.176;2022-10-23T11:49:50;19.20;99.90
24252;DHT22;12380;51.118;4.176;2022-10-23T11:52:23;19.30;58.70
24252;DHT22;12380;51.118;4.176;2022-10-23T11:54:59;19.30;61.80
24252;DHT22;12380;51.118;4.176;2022-10-23T11:57:25;19.30;44.50
24252;DHT22;12380;51.118;4.176;2022-10-23T11:59:51;19.30;29.20
24252;DHT22;12380;51.118;4.176;2022-10-23T12:02:20;19.20;29.90
24252;DHT22;12380;51.118;4.176;2022-10-23T12:04:49;19.30;63.70
24252;DHT22;12380;51.118;4.176;2022-10-23T12:07:16;19.40;33.10
24252;DHT22;12380;51.118;4.176;2022-10-23T12:10:05;19.30;31.40
24252;DHT22;12380;51.118;4.176;2022-10-23T12:17:53;19.40;23.60
24252;DHT22;12380;51.118;4.176;2022-10-23T12:20:25;19.50;2.80
24252;DHT22;12380;51.118;4.176;2022-10-23T12:23:01;19.70;1.00
24252;DHT22;12380;51.118;4.176;2022-10-23T12:30:33;19.80;1.00
24252;DHT22;12380;51.118;4.176;2022-10-23T12:35:43;20.00;1.00
24252;DHT22;12380;51.118;4.176;2022-10-23T12:38:25;20.00;1.00
24252;DHT22;12380;51.118;4.176;2022-10-23T12:40:54;20.00;1.00
24252;DHT22;12380;51.118;4.176;2022-10-23T12:43:25;20.00;1.00
24252;DHT22;12380;51.118;4.176;2022-10-23T12:45:53;20.10;1.00
24252;DHT22;12380;51.118;4.176;2022-10-23T12:48:22;20.10;1.00
24252;DHT22;12380;51.118;4.176;2022-10-23T12:50:51;20.20;1.00
24252;DHT22;12380;51.118;4.176;2022-10-23T12:53:18;20.30;1.00
24252;DHT22;12380;51.118;4.176;2022-10-23T12:55:57;20.40;1.00
24252;DHT22;12380;51.118;4.176;2022-10-23T12:58:24;20.40;1.00
24252;DHT22;12380;51.118;4.176;2022-10-23T13:00:50;20.50;1.00
24252;DHT22;12380;51.118;4.176;2022-10-23T13:03:16;20.40;99.90
24252;DHT22;12380;51.118;4.176;2022-10-23T13:05:42;20.40;99.90
24252;DHT22;12380;51.118;4.176;2022-10-23T13:08:07;20.30;99.90
24252;DHT22;12380;51.118;4.176;2022-10-23T13:10:33;20.30;99.90
24252;DHT22;12380;51.118;4.176;2022-10-23T13:13:03;20.40;99.90
24252;DHT22;12380;51.118;4.176;2022-10-23T13:16:11;20.60;1.00
24252;DHT22;12380;51.118;4.176;2022-10-23T13:18:25;20.60;1.00
24252;DHT22;12380;51.118;4.176;2022-10-23T13:23:34;20.70;99.90
24252;DHT22;12380;51.118;4.176;2022-10-23T13:26:19;20.60;1.00
24252;DHT22;12380;51.118;4.176;2022-10-23T13:28:47;20.60;99.90
24252;DHT22;12380;51.118;4.176;2022-10-23T13:38:34;20.50;1.00
24252;DHT22;12380;51.118;4.176;2022-10-23T13:41:04;20.60;99.90
24252;DHT22;12380;51.118;4.176;2022-10-23T13:43:30;20.60;1.00
24252;DHT22;12380;51.118;4.176;2022-10-23T13:45:57;20.70;1.00
24252;DHT22;12380;51.118;4.176;2022-10-23T13:48:24;20.50;1.00
24252;DHT22;12380;51.118;4.176;2022-10-23T13:50:52;20.50;99.90
24252;DHT22;12380;51.118;4.176;2022-10-23T13:53:18;20.60;1.00
24252;DHT22;12380;51.118;4.176;2022-10-23T13:55:45;20.50;1.00
24252;DHT22;12380;51.118;4.176;2022-10-23T13:58:12;20.50;63.20
24252;DHT22;12380;51.118;4.176;2022-10-23T14:00:38;20.50;99.90
24252;DHT22;12380;51.118;4.176;2022-10-23T14:03:04;20.30;63.40
24252;DHT22;12380;51.118;4.176;2022-10-23T14:05:29;20.30;99.90
24252;DHT22;12380;51.118;4.176;2022-10-23T14:07:55;20.20;1.00
24252;DHT22;12380;51.118;4.176;2022-10-23T14:10:21;20.20;1.00
24252;DHT22;12380;51.118;4.176;2022-10-23T14:12:48;20.20;1.00
24252;DHT22;12380;51.118;4.176;2022-10-23T14:15:18;20.20;1.00
24252;DHT22;12380;51.118;4.176;2022-10-23T14:17:43;20.10;1.00
24252;DHT22;12380;51.118;4.176;2022-10-23T14:20:09;20.10;1.00
24252;DHT22;12380;51.118;4.176;2022-10-23T14:22:35;20.20;1.00
24252;DHT22;12380;51.118;4.176;2022-10-23T14:25:01;20.10;1.00
24252;DHT22;12380;51.118;4.176;2022-10-23T14:27:27;20.30;1.00
24252;DHT22;12380;51.118;4.176;2022-10-23T14:29:54;20.30;1.00
24252;DHT22;12380;51.118;4.176;2022-10-23T14:32:23;20.20;1.00
24252;DHT22;12380;51.118;4.176;2022-10-23T14:34:49;20.10;1.00
24252;DHT22;12380;51.118;4.176;2022-10-23T14:37:16;20.10;1.00
24252;DHT22;12380;51.118;4.176;2022-10-23T14:39:44;20.10;1.00
24252;DHT22;12380;51.118;4.176;2022-10-23T14:42:09;20.10;1.00
24252;DHT22;12380;51.118;4.176;2022-10-23T14:44:35;20.00;1.00
24252;DHT22;12380;51.118;4.176;2022-10-23T14:47:00;20.10;1.00
24252;DHT22;12380;51.118;4.176;2022-10-23T14:49:27;20.00;1.00
24252;DHT22;12380;51.118;4.176;2022-10-23T14:51:53;19.80;1.00
24252;DHT22;12380;51.118;4.176;2022-10-23T14:54:19;19.90;1.00
24252;DHT22;12380;51.118;4.176;2022-10-23T14:56:44;19.80;1.00
24252;DHT22;12380;51.118;4.176;2022-10-23T14:59:11;19.80;99.90
24252;DHT22;12380;51.118;4.176;2022-10-23T15:01:39;19.80;99.90
24252;DHT22;12380;51.118;4.176;2022-10-23T15:04:05;19.80;20.90
24252;DHT22;12380;51.118;4.176;2022-10-23T15:06:31;19.70;99.90
24252;DHT22;12380;51.118;4.176;2022-10-23T15:08:59;19.70;99.90
24252;DHT22;12380;51.118;4.176;2022-10-23T15:11:25;19.70;99.90
24252;DHT22;12380;51.118;4.176;2022-10-23T15:13:54;19.60;99.90
24252;DHT22;12380;51.118;4.176;2022-10-23T15:16:21;19.60;1.00
24252;DHT22;12380;51.118;4.176;2022-10-23T15:18:47;19.60;1.00
24252;DHT22;12380;51.118;4.176;2022-10-23T15:21:13;19.60;99.90
24252;DHT22;12380;51.118;4.176;2022-10-23T15:23:39;19.60;99.90
24252;DHT22;12380;51.118;4.176;2022-10-23T15:26:13;19.60;99.90
24252;DHT22;12380;51.118;4.176;2022-10-23T15:28:41;19.60;1.00
24252;DHT22;12380;51.118;4.176;2022-10-23T15:31:21;19.50;1.00
24252;DHT22;12380;51.118;4.176;2022-10-23T15:33:47;19.60;1.00
24252;DHT22;12380;51.118;4.176;2022-10-23T15:36:14;19.60;1.00
24252;DHT22;12380;51.118;4.176;2022-10-23T15:38:40;19.60;1.00
24252;DHT22;12380;51.118;4.176;2022-10-23T15:41:12;19.60;1.00
24252;DHT22;12380;51.118;4.176;2022-10-23T15:43:38;19.70;1.00
24252;DHT22;12380;51.118;4.176;2022-10-23T15:46:04;19.80;1.00
24252;DHT22;12380;51.118;4.176;2022-10-23T15:48:29;19.80;99.90
24252;DHT22;12380;51.118;4.176;2022-10-23T15:50:55;19.70;99.90
24252;DHT22;12380;51.118;4.176;2022-10-23T15:53:21;19.80;99.90
24252;DHT22;12380;51.118;4.176;2022-10-23T15:55:47;19.80;99.90
24252;DHT22;12380;51.118;4.176;2022-10-23T15:58:13;19.80;99.90
24252;DHT22;12380;51.118;4.176;2022-10-23T16:00:41;19.90;99.90
24252;DHT22;12380;51.118;4.176;2022-10-23T16:03:07;19.80;99.90
24252;DHT22;12380;51.118;4.176;2022-10-23T16:05:32;19.90;99.90
24252;DHT22;12380;51.118;4.176;2022-10-23T16:07:58;19.80;1.00
24252;DHT22;12380;51.118;4.176;2022-10-23T16:10:24;19.80;1.00
24252;DHT22;12380;51.118;4.176;2022-10-23T16:12:50;19.80;1.00
24252;DHT22;12380;51.118;4.176;2022-10-23T16:15:15;19.80;1.00
24252;DHT22;12380;51.118;4.176;2022-10-23T16:17:41;19.70;1.00
24252;DHT22;12380;51.118;4.176;2022-10-23T16:20:07;19.50;1.00
24252;DHT22;12380;51.118;4.176;2022-10-23T16:22:32;19.60;1.00
24252;DHT22;12380;51.118;4.176;2022-10-23T16:24:58;19.50;1.00
24252;DHT22;12380;51.118;4.176;2022-10-23T16:27:23;19.50;1.00
24252;DHT22;12380;51.118;4.176;2022-10-23T16:29:50;19.40;1.00
24252;DHT22;12380;51.118;4.176;2022-10-23T16:32:15;19.50;1.00
24252;DHT22;12380;51.118;4.176;2022-10-23T16:34:41;19.40;1.00
24252;DHT22;12380;51.118;4.176;2022-10-23T16:37:07;19.40;1.00
24252;DHT22;12380;51.118;4.176;2022-10-23T16:39:33;19.40;1.00
24252;DHT22;12380;51.118;4.176;2022-10-23T16:42:00;19.30;1.00
24252;DHT22;12380;51.118;4.176;2022-10-23T16:44:26;19.30;1.00
24252;DHT22;12380;51.118;4.176;2022-10-23T16:46:51;19.30;1.00
24252;DHT22;12380;51.118;4.176;2022-10-23T16:49:17;19.30;1.00
24252;DHT22;12380;51.118;4.176;2022-10-23T16:51:42;19.30;1.00
24252;DHT22;12380;51.118;4.176;2022-10-23T16:54:08;19.30;1.00
24252;DHT22;12380;51.118;4.176;2022-10-23T16:56:34;19.30;1.00
24252;DHT22;12380;51.118;4.176;2022-10-23T16:58:59;19.20;1.00
24252;DHT22;12380;51.118;4.176;2022-10-23T17:01:27;19.30;1.00
24252;DHT22;12380;51.118;4.176;2022-10-23T17:03:54;19.30;1.00
24252;DHT22;12380;51.118;4.176;2022-10-23T17:06:24;19.30;1.00
24252;DHT22;12380;51.118;4.176;2022-10-23T17:08:50;19.20;1.00
24252;DHT22;12380;51.118;4.176;2022-10-23T17:11:18;19.20;1.00
24252;DHT22;12380;51.118;4.176;2022-10-23T17:13:45;19.20;1.00
24252;DHT22;12380;51.118;4.176;2022-10-23T17:16:29;19.30;1.00
24252;DHT22;12380;51.118;4.176;2022-10-23T17:18:56;19.30;1.00
24252;DHT22;12380;51.118;4.176;2022-10-23T17:21:24;19.30;1.00
24252;DHT22;12380;51.118;4.176;2022-10-23T17:23:50;19.30;1.00